Time;durP1;ratioP1;P1;durP2;ratioP2;P2;SDS_P1;SDS_P2;PMS_P1;PMS_P2;Temp;Humidity;BMP_temperature;BMP_pressure;BME280_temperature;BME280_humidity;BME280_pressure;Samples;Min_cycle;Max_cycle;Signal;HPM_P1;HPM_P2
2021/06/03 00:00:30;;;;;;;13.88;12.43;;;23.70;99.90;;;24.18;53.67;101409.34;5112745;28;20039;-71
2021/06/03 00:02:59;;;;;;;12.30;11.00;;;23.60;99.90;;;24.01;53.92;101387.69;5094433;28;20063;-71
2021/06/03 00:05:30;;;;;;;11.65;10.45;;;23.60;99.90;;;24.08;54.22;101416.16;5112621;28;20079;-71
2021/06/03 00:08:00;;;;;;;11.30;9.48;;;23.50;99.90;;;23.53;54.74;101317.22;5112690;28;20105;-71
2021/06/03 00:10:33;;;;;;;11.18;9.90;;;23.50;99.90;;;23.93;55.37;101406.13;5112365;28;20043;-71
2021/06/03 00:13:02;;;;;;;8.93;8.00;;;23.40;99.90;;;23.91;55.22;101409.84;5112388;28;20124;-71
2021/06/03 00:15:32;;;;;;;9.65;7.75;;;23.40;99.90;;;23.91;55.49;101401.72;5112259;28;20550;-71
2021/06/03 00:18:00;;;;;;;8.88;7.68;;;23.40;99.90;;;23.98;55.58;101401.34;5112501;28;20047;-71
2021/06/03 00:20:30;;;;;;;8.13;6.57;;;23.40;99.90;;;23.97;55.94;101405.00;5094188;28;20458;-71
2021/06/03 00:23:00;;;;;;;7.90;7.18;;;23.40;99.90;;;24.03;55.82;101395.75;5112267;28;20071;-71
2021/06/03 00:25:28;;;;;;;9.77;7.00;;;23.40;99.90;;;23.90;55.88;101389.19;5094246;28;20048;-72
2021/06/03 00:27:57;;;;;;;7.85;6.85;;;23.50;99.90;;;24.02;56.26;101384.03;5094049;28;20050;-72
2021/06/03 00:30:25;;;;;;;7.53;6.82;;;23.40;99.90;;;24.02;56.41;101392.16;5112193;28;20047;-71
2021/06/03 00:32:53;;;;;;;7.10;6.45;;;23.50;99.90;;;24.13;56.16;101389.78;5112452;28;20039;-71
2021/06/03 00:35:22;;;;;;;9.07;6.90;;;23.50;99.90;;;23.88;56.71;101354.13;5112095;28;20043;-71
2021/06/03 00:37:51;;;;;;;10.02;6.95;;;23.50;99.90;;;23.96;57.64;101383.47;5112069;28;20538;-72
2021/06/03 00:40:22;;;;;;;9.13;7.00;;;23.40;99.90;;;23.81;57.75;101382.41;5112692;28;20138;-72
2021/06/03 00:42:50;;;;;;;;;;;23.20;99.90;;;23.80;57.47;101390.59;5116356;28;20063;-71
2021/06/03 00:45:23;;;;;;;8.35;6.43;;;23.20;99.90;;;23.90;57.29;101390.06;5115927;28;20377;-72
2021/06/03 00:47:51;;;;;;;7.55;6.78;;;23.30;99.90;;;23.99;56.89;101388.69;5115969;28;20052;-71
2021/06/03 00:50:29;;;;;;;7.25;6.53;;;23.40;99.90;;;24.09;56.83;101395.44;5116053;28;20526;-72
2021/06/03 00:52:58;;;;;;;9.07;6.90;;;23.50;99.90;;;24.05;57.69;101389.31;5097813;28;20104;-72
2021/06/03 00:55:32;;;;;;;7.25;6.57;;;23.60;99.90;;;23.94;58.32;101383.53;5097150;28;20096;-71
2021/06/03 00:58:00;;;;;;;10.38;6.90;;;23.40;99.90;;;23.86;58.94;101388.47;5097306;28;20059;-72
2021/06/03 01:00:29;;;;;;;8.40;6.45;;;23.30;99.90;;;23.87;58.81;101395.63;5115772;28;20047;-72
2021/06/03 01:02:57;;;;;;;9.07;6.43;;;23.30;99.90;;;23.94;58.66;101390.78;5116036;28;20461;-71
2021/06/03 01:05:28;;;;;;;9.15;6.30;;;23.40;99.90;;;23.92;58.14;101371.94;5097395;28;20055;-71
2021/06/03 01:08:02;;;;;;;12.52;6.80;;;23.40;99.90;;;24.10;57.92;101386.34;5097444;28;20530;-71
2021/06/03 01:10:36;;;;;;;10.43;6.22;;;23.50;99.90;;;24.08;58.48;101385.53;5097482;28;20050;-72
2021/06/03 01:13:13;;;;;;;8.95;6.65;;;23.60;99.90;;;24.08;58.88;101389.13;5115633;28;20048;-71
2021/06/03 01:15:46;;;;;;;9.65;6.82;;;23.60;99.90;;;24.07;58.73;101408.16;5115585;28;20055;-71
2021/06/03 01:18:15;;;;;;;7.95;7.15;;;23.60;99.90;;;24.07;59.15;101403.63;5115413;28;20113;-71
2021/06/03 01:20:46;;;;;;;7.35;6.65;;;23.50;99.90;;;24.03;59.46;101407.44;5097198;28;20056;-71
2021/06/03 01:23:25;;;;;;;8.05;7.25;;;23.50;99.90;;;24.00;59.58;101401.28;5097052;28;20138;-71
2021/06/03 01:25:56;;;;;;;8.35;6.82;;;23.50;99.90;;;23.96;60.20;101405.94;5096893;28;20123;-72
2021/06/03 01:28:25;;;;;;;8.52;7.45;;;23.40;99.90;;;23.95;60.07;101406.91;5097002;28;20079;-71
2021/06/03 01:30:57;;;;;;;9.68;7.85;;;23.30;99.90;;;23.92;60.39;101414.31;5096915;28;20078;-72
2021/06/03 01:33:29;;;;;;;7.97;7.18;;;23.40;99.90;;;23.80;60.66;101418.50;5096775;28;20058;-71
2021/06/03 01:36:01;;;;;;;8.75;7.82;;;23.20;99.90;;;23.74;60.92;101426.91;5114928;28;20047;-72
2021/06/03 01:38:36;;;;;;;9.60;8.23;;;23.20;99.90;;;23.68;61.21;101429.91;5097096;28;20067;-72
2021/06/03 01:41:09;;;;;;;9.43;8.43;;;23.10;99.90;;;23.61;61.44;101433.88;5096781;28;20079;-71
2021/06/03 01:43:43;;;;;;;10.57;8.27;;;23.10;99.90;;;23.61;61.78;101441.09;5096629;28;20052;-72
2021/06/03 01:46:13;;;;;;;8.45;7.65;;;23.10;99.90;;;23.61;61.81;101441.09;5115033;28;20047;-71
2021/06/03 01:48:42;;;;;;;10.23;7.57;;;23.00;99.90;;;23.63;62.11;101433.81;5096718;28;20048;-71
2021/06/03 01:51:15;;;;;;;10.52;7.45;;;23.00;99.90;;;23.58;62.26;101441.25;5096230;28;20079;-72
2021/06/03 01:53:44;;;;;;;8.82;7.93;;;23.00;99.90;;;23.58;62.53;101446.63;5096487;28;20039;-72
2021/06/03 01:56:16;;;;;;;10.63;8.07;;;23.00;99.90;;;23.49;63.11;101445.28;5096389;28;20043;-71
2021/06/03 01:58:47;;;;;;;11.23;8.52;;;22.90;99.90;;;23.50;62.97;101449.72;5096386;28;20051;-71
2021/06/03 02:01:18;;;;;;;8.83;7.87;;;22.90;99.90;;;23.51;63.13;101445.19;5096257;28;20043;-71
2021/06/03 02:03:48;;;;;;;10.70;8.65;;;22.90;99.90;;;23.02;63.26;101357.53;5096004;28;20409;-72
2021/06/03 02:06:17;;;;;;;10.23;8.88;;;23.00;99.90;;;23.60;63.08;101463.66;5114658;28;20051;-73
2021/06/03 02:08:45;;;;;;;11.57;8.98;;;23.00;99.90;;;23.62;63.25;101451.84;5096214;28;20048;-72
2021/06/03 02:11:22;;;;;;;9.25;8.30;;;23.00;99.90;;;23.65;63.21;101448.13;5096471;28;20085;-71
2021/06/03 02:13:59;;;;;;;11.07;9.32;;;23.10;99.90;;;23.65;63.14;101454.41;5096095;28;20047;-71
2021/06/03 02:16:48;;;;;;;9.95;8.95;;;23.10;99.90;;;23.63;62.94;101450.00;5095763;28;20138;-71
2021/06/03 02:19:21;;;;;;;10.73;9.63;;;23.10;99.90;;;23.63;63.13;101453.59;5114478;28;20039;-71
2021/06/03 02:21:56;;;;;;;14.23;10.50;;;23.10;99.90;;;23.59;63.40;101459.22;5114638;28;20052;-72
2021/06/03 02:24:26;;;;;;;11.93;10.15;;;23.00;99.90;;;23.49;63.63;101455.19;5114129;28;20082;-72
2021/06/03 02:26:57;;;;;;;13.40;10.83;;;22.90;99.90;;;23.36;63.90;101454.03;5095665;28;20562;-72
2021/06/03 02:29:25;;;;;;;12.30;11.02;;;22.90;99.90;;;23.16;64.08;101471.16;5095793;28;20312;-71
2021/06/03 02:32:15;;;;;;;13.00;11.68;;;22.70;99.90;;;23.04;64.63;101469.91;5112977;28;20489;-72
2021/06/03 02:34:48;;;;;;;15.75;11.77;;;22.60;99.90;;;22.90;64.92;101463.41;5095358;28;20047;-72
2021/06/03 02:37:17;;;;;;;12.70;11.05;;;22.50;99.90;;;22.89;65.31;101467.03;5114051;28;20089;-71
2021/06/03 02:39:49;;;;;;;14.70;12.05;;;22.40;99.90;;;22.68;65.77;101468.88;5095502;28;20097;-72
2021/06/03 02:42:19;;;;;;;13.40;12.10;;;22.20;99.90;;;22.54;66.36;101462.28;5113571;28;20173;-71
2021/06/03 02:44:50;;;;;;;16.95;12.10;;;22.10;99.90;;;22.47;66.57;101461.72;5113776;28;20116;-72
2021/06/03 02:47:19;;;;;;;17.90;12.23;;;22.00;99.90;;;22.46;66.66;101470.72;5113953;28;20047;-72
2021/06/03 02:49:49;;;;;;;14.25;12.75;;;22.10;99.90;;;22.15;66.86;101419.97;5095093;28;20523;-72
2021/06/03 02:52:18;;;;;;;13.47;11.97;;;22.00;99.90;;;22.48;66.63;101473.34;5095464;28;20044;-73
2021/06/03 02:54:52;;;;;;;13.80;12.50;;;22.00;99.90;;;22.59;66.03;101473.81;5095341;28;20151;-72
2021/06/03 02:57:23;;;;;;;15.00;12.88;;;22.10;99.90;;;22.59;66.16;101479.22;5095156;28;20522;-71
2021/06/03 02:59:52;;;;;;;15.55;12.70;;;22.10;99.90;;;22.56;66.16;101480.19;5095366;28;20046;-72
2021/06/03 03:02:20;;;;;;;15.85;14.05;;;22.10;99.90;;;22.57;66.29;101475.69;5095101;28;20039;-72
2021/06/03 03:04:49;;;;;;;18.00;13.48;;;22.10;99.90;;;22.64;66.30;101479.88;5094629;28;20168;-72
2021/06/03 03:07:17;;;;;;;13.90;12.52;;;22.20;99.90;;;22.68;65.98;101484.19;5095104;28;20051;-71
2021/06/03 03:09:47;;;;;;;15.30;13.13;;;22.20;99.90;;;22.70;65.91;101480.47;5113173;28;20489;-71
2021/06/03 03:12:18;;;;;;;15.95;14.20;;;22.20;99.90;;;22.71;66.18;101484.03;5113314;28;20400;-71
2021/06/03 03:14:48;;;;;;;15.20;12.63;;;22.20;99.90;;;22.72;66.04;101488.50;5095120;28;20461;-72
2021/06/03 03:17:18;;;;;;;17.67;14.38;;;22.20;99.90;;;22.65;66.21;101487.03;5095245;28;20486;-72
2021/06/03 03:19:47;;;;;;;15.82;13.93;;;22.20;99.90;;;22.71;66.00;101497.53;5095117;28;20111;-72
2021/06/03 03:22:16;;;;;;;15.35;13.57;;;22.20;99.90;;;22.59;66.36;101492.69;5095197;28;20195;-72
2021/06/03 03:24:44;;;;;;;15.05;13.55;;;22.20;99.90;;;22.43;66.80;101500.53;5094865;28;20066;-71
2021/06/03 03:27:12;;;;;;;15.82;13.65;;;22.10;99.90;;;22.38;66.85;101492.63;5094735;28;20481;-72
2021/06/03 03:29:40;;;;;;;15.23;13.43;;;22.00;99.90;;;22.29;66.82;101484.06;5113076;28;20039;-72
2021/06/03 03:32:10;;;;;;;15.48;13.88;;;21.90;99.90;;;22.21;67.11;101495.19;5112779;28;20051;-72
2021/06/03 03:34:38;;;;;;;15.95;14.00;;;21.80;99.90;;;22.15;67.28;101486.47;5112929;28;20047;-71
2021/06/03 03:37:06;;;;;;;16.55;14.02;;;21.70;99.90;;;22.06;67.63;101484.16;5094688;28;20043;-72
2021/06/03 03:39:36;;;;;;;14.70;13.23;;;21.60;99.90;;;22.01;67.67;101488.88;5094913;28;20039;-71
2021/06/03 03:42:05;;;;;;;17.48;13.43;;;21.60;99.90;;;22.00;68.00;101487.13;5094567;28;20301;-73
2021/06/03 03:44:33;;;;;;;14.90;13.40;;;21.60;99.90;;;22.00;67.88;101496.09;5112829;28;20392;-73
2021/06/03 03:47:01;;;;;;;15.70;13.13;;;21.60;99.90;;;22.06;67.67;101506.59;5094756;28;20055;-73
2021/06/03 03:49:32;;;;;;;14.00;12.60;;;21.60;99.90;;;22.16;67.39;101502.56;5094534;28;20482;-71
2021/06/03 03:52:02;;;;;;;14.23;12.73;;;21.70;99.90;;;22.30;66.81;101513.66;5094222;28;20101;-72
2021/06/03 03:54:32;;;;;;;14.27;12.35;;;21.80;99.90;;;22.42;66.46;101509.56;5112796;28;20048;-72
2021/06/03 03:57:01;;;;;;;14.65;12.80;;;21.90;99.90;;;22.52;66.04;101505.53;5113123;28;20071;-72
2021/06/03 03:59:30;;;;;;;14.95;13.45;;;22.00;99.90;;;22.55;66.01;101510.75;5094679;28;20052;-73
2021/06/03 04:01:58;;;;;;;15.13;13.60;;;22.10;99.90;;;22.69;65.74;101512.91;5094205;28;20043;-72
2021/06/03 04:04:27;;;;;;;14.73;12.70;;;22.10;99.90;;;22.72;65.97;101518.19;5093943;28;20055;-72
2021/06/03 04:06:58;;;;;;;13.57;12.27;;;22.10;99.90;;;22.71;66.00;101525.38;5094729;28;20063;-72
2021/06/03 04:09:29;;;;;;;14.15;12.50;;;22.20;99.90;;;22.73;65.80;101525.31;5112579;28;20127;-70
2021/06/03 04:11:58;;;;;;;13.90;12.52;;;22.20;99.90;;;22.72;65.86;101523.56;5094415;28;20396;-68
2021/06/03 04:14:27;;;;;;;12.65;11.30;;;22.20;99.90;;;22.06;65.42;101408.72;5112136;28;20047;-67
2021/06/03 04:16:56;;;;;;;14.18;12.77;;;22.20;99.90;;;22.68;65.67;101533.63;5116059;28;20036;-67
2021/06/03 04:19:24;;;;;;;13.70;12.30;;;22.10;99.90;;;22.64;65.90;101532.00;5098334;28;20209;-67
2021/06/03 04:21:52;;;;;;;13.95;11.88;;;22.10;99.90;;;22.65;65.89;101533.75;5116497;28;20094;-67
2021/06/03 04:24:22;;;;;;;14.48;12.82;;;22.10;99.90;;;22.63;66.14;101538.31;5116421;28;20443;-67
2021/06/03 04:26:50;;;;;;;14.48;12.82;;;22.10;99.90;;;22.62;66.28;101539.28;5116785;28;20043;-68
2021/06/03 04:29:18;;;;;;;13.52;12.13;;;22.10;99.90;;;22.64;66.20;101540.09;5116631;28;20051;-68
2021/06/03 04:31:46;;;;;;;14.13;12.68;;;22.10;99.90;;;22.61;66.35;101537.50;5116672;28;20071;-68
2021/06/03 04:34:14;;;;;;;14.35;12.85;;;22.10;99.90;;;22.58;66.57;101540.34;5116388;28;20071;-68
2021/06/03 04:36:42;;;;;;;15.95;12.40;;;22.10;99.90;;;22.57;66.30;101549.38;5116334;28;20082;-68
2021/06/03 04:39:11;;;;;;;13.45;12.05;;;22.10;99.90;;;22.59;66.31;101547.50;5116107;28;20448;-67
2021/06/03 04:41:41;;;;;;;13.00;11.60;;;22.10;99.90;;;22.67;66.11;101547.16;5116082;28;20043;-67
2021/06/03 04:44:09;;;;;;;13.73;12.25;;;22.10;99.90;;;22.68;66.18;101546.22;5115957;28;20059;-68
2021/06/03 04:46:37;;;;;;;17.67;12.45;;;22.10;99.90;;;22.70;65.84;101549.75;5097935;28;20051;-68
2021/06/03 04:49:05;;;;;;;15.27;13.07;;;22.10;99.90;;;22.73;65.91;101550.47;5116387;28;20051;-68
2021/06/03 04:51:34;;;;;;;14.90;12.75;;;22.20;99.90;;;22.74;65.87;101551.34;5115967;28;20082;-68
2021/06/03 04:54:03;;;;;;;15.13;13.32;;;22.20;99.90;;;22.69;66.05;101551.53;5115950;28;20066;-67
2021/06/03 04:56:32;;;;;;;15.05;13.18;;;22.20;99.90;;;22.71;66.19;101556.88;5097540;28;20062;-68
2021/06/03 04:59:03;;;;;;;15.55;13.07;;;22.20;99.90;;;22.68;66.57;101554.31;5115864;28;20451;-68
2021/06/03 05:01:30;;;;;;;;;;;22.10;99.90;;;22.62;66.34;101557.28;5116189;28;20059;-68
2021/06/03 05:03:59;;;;;;;18.13;12.35;;;22.10;99.90;;;22.62;66.90;101555.47;5115566;28;19920;-68
2021/06/03 05:06:27;;;;;;;13.43;11.98;;;22.10;99.90;;;22.59;66.85;101555.56;5097179;28;20059;-68
2021/06/03 05:08:55;;;;;;;13.80;12.40;;;22.10;99.90;;;22.64;66.96;101560.78;5115738;28;20047;-67
2021/06/03 05:11:22;;;;;;;16.42;12.27;;;22.10;99.90;;;22.67;66.69;101563.34;5097380;28;20562;-68
2021/06/03 05:13:50;;;;;;;15.55;11.95;;;22.10;99.90;;;22.67;66.93;101566.91;5115595;28;20071;-68
2021/06/03 05:16:20;;;;;;;16.40;12.35;;;22.10;99.90;;;22.67;66.67;101574.13;5097231;28;20047;-68
2021/06/03 05:18:49;;;;;;;14.10;12.20;;;22.20;99.90;;;22.69;66.86;101569.53;5115094;28;20374;-67
2021/06/03 05:21:16;;;;;;;13.32;12.00;;;22.20;99.90;;;22.70;66.79;101583.00;5097059;28;20082;-67
2021/06/03 05:23:44;;;;;;;16.73;12.98;;;22.20;99.90;;;22.68;67.09;101574.09;5096906;28;20559;-67
2021/06/03 05:26:12;;;;;;;15.07;13.38;;;22.20;99.90;;;22.66;67.05;101572.38;5114690;28;20048;-69
2021/06/03 05:28:40;;;;;;;15.85;13.27;;;22.20;99.90;;;22.68;67.07;101582.19;5115400;28;20039;-69
2021/06/03 05:31:09;;;;;;;15.45;13.10;;;22.20;99.90;;;22.65;67.13;101582.28;5114999;28;20059;-69
2021/06/03 05:33:38;;;;;;;16.58;13.75;;;22.20;99.90;;;22.74;67.08;101578.34;5114927;28;20469;-69
2021/06/03 05:36:07;;;;;;;17.33;13.35;;;22.20;99.90;;;22.78;67.23;101582.66;5096875;28;20446;-68
2021/06/03 05:38:35;;;;;;;15.75;12.43;;;22.20;99.90;;;22.79;67.04;101590.69;5115221;28;20131;-68
2021/06/03 05:41:03;;;;;;;16.05;14.27;;;22.20;99.90;;;22.89;67.15;101588.47;5096724;28;20116;-68
2021/06/03 05:43:31;;;;;;;15.73;13.70;;;22.30;99.90;;;23.01;66.95;101594.22;5114851;28;20043;-68
2021/06/03 05:45:59;;;;;;;18.05;14.27;;;22.40;99.90;;;23.19;66.79;101604.16;5114829;28;20039;-68
2021/06/03 05:48:27;;;;;;;14.00;12.68;;;22.60;99.90;;;23.26;66.85;101602.09;5114954;28;20455;-67
2021/06/03 05:50:56;;;;;;;16.27;12.55;;;22.70;99.90;;;23.38;66.45;101606.97;5096465;28;20078;-68
2021/06/03 05:53:24;;;;;;;19.20;14.30;;;22.80;99.90;;;23.34;66.35;101583.75;5114856;28;20104;-68
2021/06/03 05:55:52;;;;;;;16.60;13.40;;;22.90;99.90;;;23.62;65.96;101611.22;5114570;28;20167;-68
2021/06/03 05:58:20;;;;;;;15.23;13.65;;;23.10;99.90;;;23.69;66.14;101618.09;5114895;28;20047;-68
2021/06/03 06:00:48;;;;;;;15.13;12.65;;;23.20;99.90;;;23.71;65.44;101612.63;5114402;28;20105;-68
2021/06/03 06:03:18;;;;;;;15.18;13.57;;;23.20;99.90;;;23.77;65.49;101620.47;5114631;28;20073;-68
2021/06/03 06:06:10;;;;;;;15.20;12.77;;;23.20;99.90;;;23.81;65.34;101622.94;5114684;28;20040;-68
2021/06/03 06:08:40;;;;;;;15.45;12.75;;;23.30;99.90;;;23.93;64.71;101616.94;5114167;28;20497;-67
2021/06/03 06:11:09;;;;;;;14.98;12.93;;;23.40;99.90;;;23.97;64.05;101596.06;5096093;28;20077;-68
2021/06/03 06:13:37;;;;;;;14.45;12.95;;;23.60;99.90;;;24.13;63.80;101626.84;5114291;28;20039;-68
2021/06/03 06:16:06;;;;;;;15.60;12.70;;;23.60;99.90;;;24.16;63.46;101629.38;5114458;28;20046;-68
2021/06/03 06:18:34;;;;;;;13.93;12.50;;;23.60;99.90;;;24.19;64.18;101631.97;5114136;28;20055;-68
2021/06/03 06:21:02;;;;;;;14.32;11.57;;;23.60;99.90;;;24.32;64.16;101634.94;5096062;28;20048;-68
2021/06/03 06:23:33;;;;;;;12.35;11.15;;;23.80;99.90;;;24.39;63.33;101636.41;5114079;28;20043;-68
2021/06/03 06:26:04;;;;;;;15.68;12.95;;;23.90;99.90;;;24.43;63.08;101649.69;5113699;28;20044;-68
2021/06/03 06:28:33;;;;;;;13.23;11.82;;;23.90;99.90;;;24.35;63.13;101662.69;5114121;28;20101;-69
2021/06/03 06:31:01;;;;;;;15.18;12.57;;;23.90;99.90;;;24.29;63.38;101646.78;5113751;28;20039;-69
2021/06/03 06:33:30;;;;;;;13.50;11.68;;;23.80;99.90;;;24.27;63.17;101627.06;5113957;28;20047;-70
2021/06/03 06:35:58;;;;;;;13.90;12.32;;;23.80;99.90;;;24.44;62.96;101642.44;5114070;28;20048;-67
2021/06/03 06:38:26;;;;;;;13.95;12.13;;;23.90;99.90;;;24.45;62.59;101647.78;5113294;28;20112;-66
2021/06/03 06:40:54;;;;;;;17.80;13.65;;;23.90;99.90;;;24.40;63.42;101628.19;5113940;28;20051;-68
2021/06/03 06:43:24;;;;;;;15.98;13.10;;;24.00;99.90;;;24.51;63.05;101657.41;5114114;28;20504;-68
2021/06/03 06:45:52;;;;;;;13.63;12.23;;;24.00;99.90;;;24.63;63.13;101673.06;5113806;28;20060;-68
2021/06/03 06:48:22;;;;;;;13.98;12.57;;;24.10;99.90;;;23.96;63.04;101551.06;5113885;28;20051;-68
2021/06/03 06:50:52;;;;;;;14.98;13.35;;;24.10;99.90;;;24.58;63.36;101661.59;5113845;28;20564;-69
2021/06/03 06:53:21;;;;;;;15.15;13.40;;;24.10;99.90;;;24.59;63.35;101647.97;5113731;28;20073;-69
2021/06/03 06:55:49;;;;;;;15.35;13.73;;;24.10;99.90;;;24.48;63.16;101657.59;5113175;28;20051;-69
2021/06/03 06:58:17;;;;;;;14.68;12.88;;;24.00;99.90;;;24.51;63.47;101650.19;5095140;28;20117;-68
2021/06/03 07:00:48;;;;;;;15.90;14.20;;;24.00;99.90;;;24.55;63.66;101664.44;5113583;28;20112;-72
2021/06/03 07:03:17;;;;;;;19.00;14.98;;;24.10;99.90;;;24.57;63.94;101652.59;5113296;28;20492;-72
2021/06/03 07:05:46;;;;;;;20.95;14.60;;;24.10;99.90;;;24.76;64.28;101668.81;5113384;28;20471;-72
2021/06/03 07:08:15;;;;;;;19.00;14.55;;;24.20;99.90;;;24.64;64.50;101666.69;5113173;28;20071;-71
2021/06/03 07:10:43;;;;;;;16.42;14.73;;;24.20;99.90;;;24.66;64.06;101678.34;5113272;28;20374;-71
2021/06/03 07:13:12;;;;;;;20.35;15.45;;;24.10;99.90;;;24.65;63.80;101684.69;5113346;28;20052;-71
2021/06/03 07:15:40;;;;;;;17.80;15.90;;;24.10;99.90;;;24.61;63.44;101683.06;5095037;28;20437;-71
2021/06/03 07:18:09;;;;;;;17.52;15.88;;;24.10;99.90;;;24.53;62.86;101687.97;5113116;28;20135;-71
2021/06/03 07:20:38;;;;;;;20.58;17.40;;;24.10;99.90;;;24.44;62.94;101677.63;5113103;28;20055;-71
2021/06/03 07:23:06;;;;;;;19.40;16.13;;;23.90;99.90;;;24.30;63.88;101685.50;5095135;28;20109;-71
2021/06/03 07:25:38;;;;;;;19.63;17.27;;;23.90;99.90;;;24.33;64.15;101697.06;5112572;28;20097;-69
2021/06/03 07:28:07;;;;;;;19.58;16.85;;;23.80;99.90;;;24.31;63.84;101693.59;5112796;28;20460;-69
2021/06/03 07:30:36;;;;;;;24.60;17.02;;;23.80;99.90;;;24.34;64.52;101692.53;5113118;28;20416;-68
2021/06/03 07:33:05;;;;;;;20.10;16.85;;;23.90;99.90;;;24.40;63.87;101703.06;5112997;28;20055;-68
2021/06/03 07:35:36;;;;;;;19.92;17.10;;;23.90;99.90;;;24.41;64.50;101712.94;5113030;28;20044;-68
2021/06/03 07:38:05;;;;;;;22.73;17.75;;;23.90;99.90;;;24.48;64.60;101709.88;5094637;28;20049;-68
2021/06/03 07:40:36;;;;;;;20.23;18.17;;;23.90;99.90;;;24.47;64.11;101712.63;5112982;28;20052;-69
2021/06/03 07:43:07;;;;;;;20.77;18.58;;;24.00;99.90;;;24.55;64.14;101718.53;5112720;28;20608;-69
2021/06/03 07:45:36;;;;;;;20.38;18.10;;;24.10;99.90;;;24.64;63.75;101712.72;5112574;28;20120;-69
2021/06/03 07:48:06;;;;;;;18.90;16.90;;;24.20;99.90;;;24.82;63.61;101728.06;5113254;28;20056;-69
2021/06/03 07:50:37;;;;;;;23.70;19.42;;;24.40;99.90;;;24.93;63.37;101720.28;5112812;28;20088;-69
2021/06/03 07:53:07;;;;;;;23.30;18.38;;;24.50;99.90;;;24.95;63.44;101703.00;5094630;28;20083;-69
2021/06/03 07:55:36;;;;;;;;;;;24.60;99.90;;;25.10;63.38;101716.72;5113335;28;20499;-69
2021/06/03 07:58:09;;;;;;;20.05;17.92;;;24.70;99.90;;;25.18;62.94;101726.22;5112668;28;19920;-69
2021/06/03 08:00:40;;;;;;;24.50;18.17;;;24.70;99.90;;;25.34;62.82;101724.44;5094537;28;20047;-69
2021/06/03 08:03:09;;;;;;;24.80;19.52;;;24.90;99.90;;;25.39;61.30;101716.09;5112527;28;20073;-69
2021/06/03 08:05:39;;;;;;;21.15;18.08;;;25.00;99.90;;;25.44;62.26;101730.31;5112645;28;20051;-68
2021/06/03 08:08:07;;;;;;;22.58;17.65;;;25.00;99.90;;;25.46;61.21;101723.84;5112565;28;20154;-69
2021/06/03 08:10:38;;;;;;;19.58;17.20;;;25.00;99.90;;;25.58;60.52;101725.03;5112547;28;20451;-69
2021/06/03 08:13:08;;;;;;;19.98;16.90;;;25.10;99.90;;;25.79;60.57;101723.91;5112793;28;20042;-69
2021/06/03 08:15:39;;;;;;;19.30;17.05;;;25.40;99.90;;;25.31;59.82;101613.56;5112443;28;20043;-71
2021/06/03 08:18:07;;;;;;;20.70;18.05;;;25.50;99.90;;;25.97;60.93;101728.34;5112491;28;20106;-68
2021/06/03 08:20:40;;;;;;;20.35;17.45;;;25.50;99.90;;;25.54;60.53;101650.28;5112229;28;20071;-69
2021/06/03 08:23:11;;;;;;;22.15;18.85;;;25.50;99.90;;;25.85;59.44;101732.59;5112618;28;20040;-69
2021/06/03 08:25:39;;;;;;;20.27;18.08;;;25.40;99.90;;;25.67;59.25;101741.69;5112409;28;20473;-68
2021/06/03 08:28:07;;;;;;;21.13;18.80;;;25.20;99.90;;;25.70;60.46;101743.38;5112489;28;20043;-69
2021/06/03 08:30:37;;;;;;;23.13;19.20;;;25.20;99.90;;;25.63;61.42;101740.09;5112504;28;20069;-69
2021/06/03 08:33:07;;;;;;;21.25;18.20;;;25.20;99.90;;;25.62;61.60;101742.91;5112599;28;20105;-69
2021/06/03 08:35:36;;;;;;;22.63;18.57;;;25.20;99.90;;;25.54;61.46;101727.03;5093863;28;20063;-69
2021/06/03 08:38:08;;;;;;;19.98;17.40;;;25.20;99.90;;;25.72;61.35;101739.63;5094152;28;20052;-71
2021/06/03 08:40:39;;;;;;;20.20;17.90;;;25.30;99.90;;;25.64;60.79;101732.84;5094061;28;20074;-70
2021/06/03 08:43:09;;;;;;;18.98;17.02;;;25.30;99.90;;;25.71;61.76;101743.28;5094125;28;20067;-69
2021/06/03 08:45:39;;;;;;;22.35;18.42;;;25.20;99.90;;;25.75;60.97;101744.00;5111986;28;20048;-71
2021/06/03 08:48:08;;;;;;;19.83;17.45;;;25.30;99.90;;;25.80;61.57;101748.22;5094167;28;20414;-71
2021/06/03 08:50:39;;;;;;;23.02;18.17;;;25.30;99.90;;;26.01;61.68;101746.19;5094035;28;20138;-68
2021/06/03 08:53:10;;;;;;;25.48;18.27;;;25.50;99.90;;;26.00;59.71;101751.72;5112377;28;20040;-69
2021/06/03 08:58:27;;;;;;;23.80;19.58;;;25.70;99.90;;;26.46;59.28;101756.38;5112075;28;20067;-69
2021/06/03 09:00:58;;;;;;;26.02;19.52;;;26.00;99.90;;;26.56;59.63;101761.19;5112156;28;20044;-69
2021/06/03 09:03:29;;;;;;;21.65;18.42;;;26.10;99.90;;;26.63;58.55;101750.88;5115883;28;20054;-69
2021/06/03 09:05:57;;;;;;;20.63;17.77;;;26.20;99.90;;;26.72;58.08;101755.78;5115925;28;20450;-71
2021/06/03 09:08:29;;;;;;;19.58;17.58;;;26.30;99.90;;;26.43;56.93;101724.84;5115855;28;20161;-69
2021/06/03 09:11:00;;;;;;;24.48;18.05;;;26.20;99.90;;;26.57;57.55;101752.09;5097570;28;20051;-70
2021/06/03 09:13:31;;;;;;;21.85;17.13;;;26.10;99.90;;;26.63;56.46;101750.88;5115813;28;20058;-69
2021/06/03 09:16:01;;;;;;;20.02;17.85;;;26.20;99.90;;;26.73;56.93;101758.41;5115783;28;20044;-70
2021/06/03 09:18:31;;;;;;;21.13;18.88;;;26.30;99.90;;;26.68;57.05;101754.19;5115823;28;20040;-70
2021/06/03 09:21:09;;;;;;;25.00;19.02;;;26.20;99.90;;;26.77;57.82;101764.56;5097374;28;20481;-70
2021/06/03 09:23:41;;;;;;;23.67;19.55;;;26.30;99.90;;;26.67;56.91;101728.00;5115414;28;20048;-70
2021/06/03 09:26:11;;;;;;;23.55;18.35;;;26.40;99.90;;;26.64;57.43;101741.75;5115577;28;20043;-71
2021/06/03 09:28:40;;;;;;;;;;;26.30;99.90;;;26.58;57.28;101747.50;5097673;28;20108;-70
2021/06/03 09:31:16;;;;;;;19.77;17.67;;;26.20;99.90;;;26.67;57.68;101760.59;5115115;28;19999;-70
2021/06/03 09:33:55;;;;;;;20.40;17.75;;;26.20;99.90;;;26.81;57.48;101773.41;5115349;28;20052;-69
2021/06/03 09:36:38;;;;;;;22.60;19.77;;;26.30;99.90;;;26.62;57.28;101743.66;5114985;28;20493;-70
2021/06/03 09:39:24;;;;;;;23.55;20.45;;;26.30;99.90;;;26.72;58.13;101772.97;5114883;28;20560;-70
2021/06/03 09:41:56;;;;;;;23.77;19.17;;;26.30;99.90;;;26.90;58.17;101775.59;5115139;28;20409;-69
2021/06/03 09:44:28;;;;;;;22.55;20.25;;;26.40;99.90;;;27.01;56.56;101781.28;5115427;28;20094;-69
2021/06/03 09:47:02;;;;;;;26.02;19.70;;;26.60;99.90;;;27.02;56.15;101783.94;5114852;28;20048;-69
2021/06/03 09:49:38;;;;;;;23.95;20.20;;;26.60;99.90;;;27.17;55.98;101780.31;5096759;28;20512;-71
2021/06/03 09:52:09;;;;;;;23.95;19.92;;;26.70;99.90;;;27.21;55.52;101779.16;5115107;28;20048;-70
2021/06/03 09:54:39;;;;;;;;;;;26.80;99.90;;;27.32;54.84;101781.22;5115115;28;20485;-69
2021/06/03 09:57:10;;;;;;;21.85;19.55;;;26.90;99.90;;;27.41;54.21;101792.47;5114296;28;20446;-70
2021/06/03 09:59:40;;;;;;;20.55;18.20;;;27.00;99.90;;;27.48;54.31;101788.44;5114490;28;20386;-70
2021/06/03 10:02:09;;;;;;;18.65;16.70;;;27.00;99.90;;;27.45;54.01;101796.75;5096457;28;20048;-69
2021/06/03 10:04:44;;;;;;;23.63;20.50;;;27.00;99.90;;;27.46;54.11;101797.63;5114650;28;20054;-70
2021/06/03 10:07:18;;;;;;;24.45;20.80;;;27.00;99.90;;;27.52;54.03;101795.44;5114365;28;20430;-70
2021/06/03 10:09:54;;;;;;;27.35;23.58;;;27.10;99.90;;;27.40;54.20;101803.44;5114574;28;20047;-70
2021/06/03 10:12:42;;;;;;;23.00;20.55;;;26.90;99.90;;;27.50;53.57;101807.34;5114563;28;20113;-70
2021/06/03 10:15:34;;;;;;;23.65;19.67;;;27.00;99.90;;;27.10;52.93;101716.41;5095828;28;20120;-70
2021/06/03 10:18:05;;;;;;;24.00;18.92;;;27.20;99.90;;;27.75;53.25;101804.03;5114520;28;20544;-70